createdAt,value
2019-05-18T07:06:44.035Z,14.90
2019-05-18T07:09:14.593Z,15.00
2019-05-18T07:11:44.865Z,15.00
2019-05-18T07:14:25.393Z,15.10
2019-05-18T07:16:48.213Z,15.10
2019-05-18T07:19:18.561Z,15.20
2019-05-18T07:21:48.816Z,15.30
2019-05-18T07:24:18.971Z,15.40
2019-05-18T07:26:49.090Z,15.50
2019-05-18T07:29:19.109Z,15.60
2019-05-18T07:31:49.266Z,15.60
2019-05-18T07:34:19.299Z,15.70
2019-05-18T07:36:49.439Z,15.70
2019-05-18T07:39:19.619Z,15.70
2019-05-18T07:41:49.581Z,15.80
2019-05-18T07:44:19.911Z,15.80
2019-05-18T07:46:50.007Z,15.90
2019-05-18T07:49:20.155Z,15.90
2019-05-18T07:51:50.168Z,15.90
2019-05-18T07:54:20.229Z,16.00
2019-05-18T07:56:50.284Z,16.00
2019-05-18T07:59:20.338Z,16.00
2019-05-18T08:01:50.368Z,16.00
2019-05-18T08:04:20.592Z,16.00
2019-05-18T08:06:50.719Z,16.00
2019-05-18T08:09:20.919Z,15.90
2019-05-18T08:11:51.015Z,15.90
2019-05-18T08:14:22.322Z,15.90
2019-05-18T08:16:52.404Z,16.00
2019-05-18T08:19:22.411Z,16.00
2019-05-18T08:21:53.702Z,16.00
2019-05-18T08:24:23.952Z,16.00
2019-05-18T08:26:54.063Z,15.90
2019-05-18T08:29:24.222Z,15.90
2019-05-18T08:31:54.247Z,15.90
2019-05-18T08:34:24.404Z,15.80
2019-05-18T08:36:54.648Z,15.80
2019-05-18T08:39:29.100Z,15.80
2019-05-18T08:41:59.234Z,15.80
2019-05-18T08:44:29.640Z,15.80
2019-05-18T08:47:00.168Z,15.80
2019-05-18T08:49:30.537Z,15.90
2019-05-18T08:52:08.354Z,15.90
2019-05-18T08:54:37.213Z,15.90
2019-05-18T08:57:08.423Z,15.90
2019-05-18T08:59:40.009Z,16.00
2019-05-18T09:02:10.564Z,16.10
2019-05-18T09:04:40.782Z,16.20
2019-05-18T09:07:12.061Z,16.20
2019-05-18T09:09:42.057Z,16.30
2019-05-18T09:12:19.068Z,16.40
2019-05-18T09:14:56.310Z,16.60
2019-05-18T09:17:35.443Z,16.80
2019-05-18T09:20:18.430Z,17.10
2019-05-18T09:22:51.394Z,17.40
2019-05-18T09:25:21.587Z,17.80
2019-05-18T09:27:51.652Z,18.10
2019-05-18T09:30:22.347Z,18.30
2019-05-18T09:32:52.942Z,18.50
2019-05-18T09:35:27.867Z,18.80
2019-05-18T09:37:58.107Z,18.90
2019-05-18T09:40:28.423Z,19.10
2019-05-18T09:42:58.618Z,19.30
2019-05-18T09:45:28.861Z,19.40
2019-05-18T09:48:02.184Z,19.50
2019-05-18T09:50:36.271Z,19.60
2019-05-18T09:53:06.585Z,19.80
2019-05-18T09:55:36.821Z,19.90
2019-05-18T09:58:07.218Z,20.00
2019-05-18T10:00:39.076Z,20.10
2019-05-18T10:03:10.555Z,20.20
2019-05-18T10:05:40.809Z,20.40
2019-05-18T10:08:11.145Z,20.50
2019-05-18T10:10:41.316Z,20.70
2019-05-18T10:13:13.001Z,21.00
2019-05-18T10:15:43.286Z,21.20
2019-05-18T10:18:13.517Z,21.40
2019-05-18T10:20:43.747Z,21.50
2019-05-18T10:23:14.119Z,21.70
2019-05-18T10:25:44.437Z,21.80
2019-05-18T10:28:16.912Z,22.10
2019-05-18T10:30:47.117Z,22.30
2019-05-18T10:33:17.318Z,22.50
2019-05-18T10:35:47.350Z,22.60
2019-05-18T10:38:18.015Z,22.80
2019-05-18T10:40:48.236Z,22.90
2019-05-18T10:43:18.325Z,23.10
2019-05-18T10:45:48.478Z,23.20
2019-05-18T10:48:18.601Z,23.30
2019-05-18T10:50:48.919Z,23.30
2019-05-18T10:53:28.370Z,23.10
2019-05-18T10:55:56.140Z,23.00
2019-05-18T10:58:30.407Z,23.00
2019-05-18T11:01:06.213Z,22.90
2019-05-18T11:03:36.377Z,23.00
2019-05-18T11:06:13.459Z,23.00
2019-05-18T11:08:59.359Z,23.10
2019-05-18T11:11:29.636Z,23.20
2019-05-18T11:14:02.324Z,23.20
2019-05-18T11:16:33.551Z,23.10
2019-05-18T11:19:03.788Z,23.20
2019-05-18T11:21:33.958Z,23.20
2019-05-18T11:24:04.325Z,23.30
2019-05-18T11:26:34.601Z,23.50
2019-05-18T11:29:04.837Z,23.70
2019-05-18T11:31:35.049Z,23.90
2019-05-18T11:34:05.149Z,24.10
2019-05-18T11:36:55.365Z,24.30
2019-05-18T11:39:25.411Z,24.40
2019-05-18T11:41:55.488Z,24.60
2019-05-18T11:44:25.687Z,24.80
2019-05-18T11:46:55.691Z,25.00
2019-05-18T11:49:28.964Z,25.10
2019-05-18T11:51:57.804Z,25.20
2019-05-18T11:54:27.810Z,25.30
2019-05-18T11:56:57.813Z,25.40
2019-05-18T11:59:28.081Z,25.70
2019-05-18T12:01:58.162Z,25.70
2019-05-18T12:04:29.543Z,25.70
2019-05-18T12:06:59.576Z,25.60
2019-05-18T12:09:29.824Z,25.70
2019-05-18T12:11:59.949Z,25.80
2019-05-18T12:14:30.125Z,25.90
2019-05-18T12:17:00.261Z,25.90
2019-05-18T12:19:30.319Z,25.90
2019-05-18T12:22:00.540Z,26.00
2019-05-18T12:24:30.659Z,26.20
2019-05-18T12:27:00.830Z,26.40
2019-05-18T12:29:34.093Z,26.50
2019-05-18T12:32:04.203Z,26.70
2019-05-18T12:34:34.745Z,26.80
2019-05-18T12:37:04.996Z,26.90
2019-05-18T12:39:35.188Z,27.00
2019-05-18T12:42:07.582Z,27.10
2019-05-18T12:44:37.314Z,27.10
2019-05-18T12:47:07.589Z,27.20
2019-05-18T12:49:38.910Z,27.20
2019-05-18T12:52:09.324Z,27.10
2019-05-18T12:54:46.380Z,27.00
2019-05-18T12:57:13.805Z,26.80
2019-05-18T12:59:43.826Z,26.80
2019-05-18T13:02:14.092Z,26.70
2019-05-18T13:04:44.514Z,26.50
2019-05-18T13:07:14.811Z,26.40
2019-05-18T13:09:45.082Z,26.20
2019-05-18T13:12:15.341Z,26.10
2019-05-18T13:14:45.484Z,26.00
2019-05-18T13:17:15.642Z,25.90
2019-05-18T13:19:45.946Z,25.80
2019-05-18T13:22:16.134Z,25.80
2019-05-18T13:24:46.283Z,25.90
2019-05-18T13:27:16.471Z,26.00
2019-05-18T13:29:46.593Z,26.20
2019-05-18T13:32:16.844Z,26.40
2019-05-18T13:34:46.998Z,26.60
2019-05-18T13:37:20.888Z,26.70
2019-05-18T13:39:52.036Z,26.70
2019-05-18T13:42:22.143Z,26.80
2019-05-18T13:44:52.239Z,26.90
2019-05-18T13:47:22.478Z,26.80
2019-05-18T13:49:52.555Z,26.80
2019-05-18T13:52:23.606Z,27.00
2019-05-18T13:55:03.533Z,27.10
2019-05-18T13:57:25.534Z,27.10
2019-05-18T13:59:56.753Z,27.10
2019-05-18T14:02:27.086Z,27.10
2019-05-18T14:04:57.350Z,27.20
2019-05-18T14:07:27.471Z,27.20
2019-05-18T14:09:57.788Z,27.10
2019-05-18T14:12:29.086Z,27.20
2019-05-18T14:14:59.255Z,27.40
2019-05-18T14:17:29.322Z,27.60
2019-05-18T14:19:59.468Z,27.70
2019-05-18T14:22:29.755Z,27.80
2019-05-18T14:25:01.266Z,27.80
2019-05-18T14:27:31.294Z,27.70
2019-05-18T14:30:01.451Z,27.40
2019-05-18T14:32:31.726Z,27.20
2019-05-18T14:35:01.877Z,27.20
2019-05-18T14:37:31.997Z,27.20
2019-05-18T14:40:02.032Z,27.40
2019-05-18T14:42:32.123Z,27.40
2019-05-18T14:45:03.231Z,27.60
2019-05-18T14:47:33.486Z,27.70
2019-05-18T14:50:05.366Z,27.60
2019-05-18T14:52:36.597Z,27.50
2019-05-18T14:55:06.847Z,27.60
2019-05-18T14:57:52.820Z,27.70
2019-05-18T15:00:23.189Z,27.80
2019-05-18T15:02:53.384Z,28.00
2019-05-18T15:05:23.733Z,28.10
2019-05-18T15:07:53.927Z,28.10
2019-05-18T15:10:25.094Z,28.10
2019-05-18T15:12:55.226Z,28.10
2019-05-18T15:15:25.431Z,28.00
2019-05-18T15:17:55.857Z,28.00
2019-05-18T15:20:26.044Z,27.90
2019-05-18T15:22:56.133Z,27.80
2019-05-18T15:25:26.359Z,27.60
2019-05-18T15:27:56.488Z,27.40
2019-05-18T15:30:26.773Z,27.20
2019-05-18T15:32:56.836Z,27.10
2019-05-18T15:35:26.969Z,27.00
2019-05-18T15:37:57.263Z,27.00
2019-05-18T15:40:27.442Z,27.00
2019-05-18T15:42:57.634Z,27.20
2019-05-18T15:45:27.563Z,27.20
2019-05-18T15:47:57.552Z,27.40
2019-05-18T15:50:28.075Z,27.50
2019-05-18T15:52:58.216Z,27.60
2019-05-18T15:55:28.831Z,27.80
2019-05-18T15:57:58.978Z,28.20
2019-05-18T16:00:29.202Z,28.30
2019-05-18T16:02:59.391Z,27.90
2019-05-18T16:05:29.620Z,27.50
2019-05-18T16:07:59.789Z,26.90
2019-05-18T16:10:30.073Z,26.50
2019-05-18T16:13:00.098Z,26.30
2019-05-18T16:15:30.213Z,26.20
2019-05-18T16:18:00.307Z,26.30
2019-05-18T16:20:30.548Z,26.70
2019-05-18T16:23:00.688Z,26.80
2019-05-18T16:25:30.885Z,26.90
2019-05-18T16:28:01.181Z,26.90
2019-05-18T16:30:31.333Z,26.80
2019-05-18T16:33:01.633Z,26.50
2019-05-18T16:35:32.294Z,26.20
2019-05-18T16:38:02.392Z,25.90
2019-05-18T16:40:32.459Z,25.60
2019-05-18T16:43:02.997Z,25.30
2019-05-18T16:45:33.114Z,25.00
2019-05-18T16:48:03.283Z,24.80
2019-05-18T16:50:33.473Z,24.50
2019-05-18T16:53:03.718Z,24.30
2019-05-18T16:55:34.235Z,24.00
2019-05-18T16:58:04.437Z,23.80
2019-05-18T17:00:34.572Z,23.70
2019-05-18T17:03:04.742Z,23.50
2019-05-18T17:05:35.002Z,23.30
2019-05-18T17:08:05.309Z,23.20
2019-05-18T17:10:35.535Z,22.90
2019-05-18T17:13:05.723Z,22.80
2019-05-18T17:15:35.931Z,22.70
2019-05-18T17:18:06.192Z,22.50
2019-05-18T17:20:36.256Z,22.50
2019-05-18T17:23:06.273Z,22.40
2019-05-18T17:25:36.444Z,22.30
2019-05-18T17:28:06.751Z,22.20
2019-05-18T17:30:36.972Z,22.10
2019-05-18T17:33:07.136Z,22.00
2019-05-18T17:35:37.215Z,21.90
2019-05-18T17:38:07.389Z,21.80
2019-05-18T17:40:37.573Z,21.70
2019-05-18T17:43:07.705Z,21.60
2019-05-18T17:45:37.843Z,21.40
2019-05-18T17:48:08.095Z,21.30
2019-05-18T17:50:38.205Z,21.30
2019-05-18T17:53:08.416Z,21.20
2019-05-18T17:55:38.453Z,21.10
2019-05-18T17:58:09.689Z,21.00
2019-05-18T18:00:39.873Z,21.00
2019-05-18T18:03:10.011Z,20.90
2019-05-18T18:05:40.375Z,20.80
2019-05-18T18:08:10.661Z,20.80
2019-05-18T18:10:40.929Z,20.70
2019-05-18T18:13:11.162Z,20.60
2019-05-18T18:15:41.657Z,20.60
2019-05-18T18:18:11.876Z,20.60
2019-05-18T18:20:42.120Z,20.50
2019-05-18T18:23:12.278Z,20.40
2019-05-18T18:25:42.315Z,20.40
2019-05-18T18:28:12.361Z,20.30
2019-05-18T18:30:42.487Z,20.30
2019-05-18T18:33:12.766Z,20.20
2019-05-18T18:35:42.874Z,20.10
2019-05-18T18:38:13.154Z,20.00
2019-05-18T18:40:45.132Z,19.90
2019-05-18T18:43:20.462Z,19.90
2019-05-18T18:45:50.402Z,19.80
2019-05-18T18:48:20.493Z,19.70
2019-05-18T18:50:50.694Z,19.70
2019-05-18T18:53:20.973Z,19.60
2019-05-18T18:55:52.433Z,19.50
2019-05-18T18:58:22.537Z,19.40
2019-05-18T19:00:52.679Z,19.40
2019-05-18T19:03:24.197Z,19.30
2019-05-18T19:05:54.282Z,19.30
2019-05-18T19:08:26.115Z,19.20
2019-05-18T19:11:02.385Z,19.10
2019-05-18T19:13:45.737Z,19.10
2019-05-18T19:16:15.721Z,19.00
2019-05-18T19:18:45.717Z,19.00
2019-05-18T19:21:17.474Z,19.00
2019-05-18T19:23:52.022Z,18.90
2019-05-18T19:26:31.444Z,18.90
2019-05-18T19:29:05.190Z,18.90
2019-05-18T19:31:35.684Z,18.80
2019-05-18T19:34:05.895Z,18.80
2019-05-18T19:36:36.596Z,18.80
2019-05-18T19:39:08.265Z,18.80
2019-05-18T19:41:39.000Z,18.70
2019-05-18T19:44:09.487Z,18.70
2019-05-18T19:46:39.741Z,18.70
2019-05-18T19:49:11.871Z,18.70
2019-05-18T19:51:44.174Z,18.60
2019-05-18T19:54:15.113Z,18.60
2019-05-18T19:56:46.068Z,18.50
2019-05-18T19:59:16.645Z,18.50
2019-05-18T20:01:46.866Z,18.40
2019-05-18T20:04:18.954Z,18.40
2019-05-18T20:06:49.074Z,18.30
2019-05-18T20:09:19.344Z,18.30
2019-05-18T20:11:49.535Z,18.20
2019-05-18T20:14:20.991Z,18.20
2019-05-18T20:16:52.205Z,18.10
2019-05-18T20:19:37.915Z,18.10
2019-05-18T20:21:54.423Z,18.00
2019-05-18T20:24:24.704Z,17.90
2019-05-18T20:26:54.842Z,17.90
2019-05-18T20:29:25.046Z,17.90
2019-05-18T20:31:57.041Z,17.90
2019-05-18T20:34:27.279Z,17.80
2019-05-18T20:36:57.470Z,17.80
2019-05-18T20:39:28.079Z,17.80
2019-05-18T20:41:58.151Z,17.70
2019-05-18T20:44:28.253Z,17.70
2019-05-18T20:46:58.500Z,17.70
2019-05-18T20:49:28.711Z,17.70
2019-05-18T20:51:58.853Z,17.60
2019-05-18T20:54:29.039Z,17.60
2019-05-18T20:57:00.511Z,17.60
2019-05-18T20:59:30.951Z,17.50
2019-05-18T21:02:01.116Z,17.50
2019-05-18T21:04:32.510Z,17.50
2019-05-18T21:07:05.786Z,17.50
2019-05-18T21:09:35.978Z,17.50
2019-05-18T21:12:07.459Z,17.50
2019-05-18T21:14:37.841Z,17.50
2019-05-18T21:17:08.432Z,17.50
2019-05-18T21:19:38.538Z,17.50
2019-05-18T21:22:08.790Z,17.50
2019-05-18T21:24:38.880Z,17.50
2019-05-18T21:27:08.883Z,17.50
2019-05-18T21:29:39.173Z,17.50
2019-05-18T21:32:09.326Z,17.50
2019-05-18T21:34:39.554Z,17.50
2019-05-18T21:37:09.739Z,17.40
2019-05-18T21:39:39.830Z,17.50
2019-05-18T21:42:09.942Z,17.40
2019-05-18T21:44:40.248Z,17.50
2019-05-18T21:47:10.278Z,17.50
2019-05-18T21:49:40.574Z,17.50
2019-05-18T21:52:10.738Z,17.40
2019-05-18T21:54:40.907Z,17.40
2019-05-18T21:57:11.034Z,17.40
2019-05-18T21:59:41.270Z,17.40
2019-05-18T22:02:11.565Z,17.40
2019-05-18T22:04:44.498Z,17.30
2019-05-18T22:07:14.752Z,17.30
2019-05-18T22:09:45.003Z,17.30
2019-05-18T22:12:15.278Z,17.30
2019-05-18T22:14:45.400Z,17.30
2019-05-18T22:17:15.571Z,17.20
2019-05-18T22:19:45.618Z,17.20
2019-05-18T22:22:15.855Z,17.20
2019-05-18T22:24:45.873Z,17.20
2019-05-18T22:27:16.098Z,17.20
2019-05-18T22:29:46.313Z,17.20
2019-05-18T22:32:16.528Z,17.10
2019-05-18T22:34:46.717Z,17.10
2019-05-18T22:37:16.925Z,17.10
2019-05-18T22:39:47.043Z,17.10
2019-05-18T22:42:17.165Z,17.20
2019-05-18T22:44:47.455Z,17.10
2019-05-18T22:47:17.823Z,17.20
2019-05-18T22:49:48.006Z,17.10
2019-05-18T22:52:19.446Z,17.20
2019-05-18T22:54:50.912Z,17.20
2019-05-18T22:57:23.441Z,17.10
2019-05-18T22:59:54.645Z,17.10
2019-05-18T23:02:24.726Z,17.10
2019-05-18T23:04:54.852Z,17.10
2019-05-18T23:07:24.918Z,17.10
2019-05-18T23:09:54.927Z,17.00
2019-05-18T23:12:25.202Z,17.10
2019-05-18T23:14:55.306Z,17.10
2019-05-18T23:17:25.445Z,17.10
2019-05-18T23:19:55.587Z,17.00
2019-05-18T23:22:25.806Z,17.00
2019-05-18T23:24:55.959Z,17.00
2019-05-18T23:27:25.951Z,17.00
2019-05-18T23:29:56.151Z,17.00
2019-05-18T23:32:26.293Z,17.00
2019-05-18T23:34:56.297Z,16.90
2019-05-18T23:37:26.564Z,16.90
2019-05-18T23:39:56.846Z,16.90
2019-05-18T23:42:26.950Z,16.90
2019-05-18T23:44:57.134Z,16.90
2019-05-18T23:47:27.271Z,16.90
2019-05-18T23:49:57.290Z,16.80
2019-05-18T23:52:28.067Z,16.80
2019-05-18T23:54:58.370Z,16.80
2019-05-18T23:57:28.445Z,16.80
2019-05-18T23:59:58.771Z,16.70
